sensor_id;sensor_type;location;lat;lon;timestamp;pressure;altitude;pressure_sealevel;temperature;humidity
73692;BME280;61996;49.910;35.562;2023-07-24T00:00:03;99168.69;;;21.40;58.29
73692;BME280;61996;49.910;35.562;2023-07-24T00:03:06;99178.06;;;21.36;57.93
73692;BME280;61996;49.910;35.562;2023-07-24T00:06:11;99178.22;;;21.42;57.72
73692;BME280;61996;49.910;35.562;2023-07-24T00:09:13;99173.38;;;21.38;57.93
73692;BME280;61996;49.910;35.562;2023-07-24T00:12:16;99179.38;;;21.40;57.81
73692;BME280;61996;49.910;35.562;2023-07-24T00:15:19;99167.53;;;21.42;57.83
73692;BME280;61996;49.910;35.562;2023-07-24T00:18:22;99163.00;;;21.43;57.74
73692;BME280;61996;49.910;35.562;2023-07-24T00:21:26;99167.69;;;21.49;57.55
73692;BME280;61996;49.910;35.562;2023-07-24T00:24:29;99166.66;;;21.42;57.81
73692;BME280;61996;49.910;35.562;2023-07-24T00:27:32;99166.66;;;21.42;57.93
73692;BME280;61996;49.910;35.562;2023-07-24T00:30:35;99165.53;;;21.44;57.63
73692;BME280;61996;49.910;35.562;2023-07-24T00:33:38;99166.34;;;21.45;57.49
73692;BME280;61996;49.910;35.562;2023-07-24T00:36:42;99169.19;;;21.43;57.53
73692;BME280;61996;49.910;35.562;2023-07-24T00:39:46;99168.34;;;21.34;57.55
73692;BME280;61996;49.910;35.562;2023-07-24T00:42:48;99173.69;;;21.34;57.64
73692;BME280;61996;49.910;35.562;2023-07-24T00:45:51;99172.81;;;21.26;57.61
73692;BME280;61996;49.910;35.562;2023-07-24T00:48:54;99170.69;;;21.29;57.76
73692;BME280;61996;49.910;35.562;2023-07-24T00:51:58;99166.97;;;21.22;57.55
73692;BME280;61996;49.910;35.562;2023-07-24T00:55:01;99168.97;;;21.20;57.89
73692;BME280;61996;49.910;35.562;2023-07-24T00:58:04;99172.16;;;21.16;57.81
73692;BME280;61996;49.910;35.562;2023-07-24T01:01:07;99170.97;;;21.18;57.79
73692;BME280;61996;49.910;35.562;2023-07-24T01:04:12;99179.34;;;21.15;57.52
73692;BME280;61996;49.910;35.562;2023-07-24T01:07:17;99174.47;;;21.19;57.69
73692;BME280;61996;49.910;35.562;2023-07-24T01:10:20;99180.84;;;21.18;57.63
73692;BME280;61996;49.910;35.562;2023-07-24T01:13:24;99178.50;;;21.15;57.69
73692;BME280;61996;49.910;35.562;2023-07-24T01:16:29;99180.19;;;21.24;57.55
73692;BME280;61996;49.910;35.562;2023-07-24T01:19:35;99186.09;;;20.85;58.16
73692;BME280;61996;49.910;35.562;2023-07-24T01:22:43;99189.31;;;20.97;58.81
73692;BME280;61996;49.910;35.562;2023-07-24T01:25:54;99193.56;;;21.24;57.95
73692;BME280;61996;49.910;35.562;2023-07-24T01:28:58;99192.94;;;21.30;57.62
73692;BME280;61996;49.910;35.562;2023-07-24T01:32:01;99188.06;;;21.33;57.45
73692;BME280;61996;49.910;35.562;2023-07-24T01:35:04;99187.56;;;21.38;57.41
73692;BME280;61996;49.910;35.562;2023-07-24T01:38:07;99188.06;;;21.42;57.20
73692;BME280;61996;49.910;35.562;2023-07-24T01:41:12;99181.22;;;21.47;57.48
73692;BME280;61996;49.910;35.562;2023-07-24T01:44:15;99190.09;;;21.48;57.24
73692;BME280;61996;49.910;35.562;2023-07-24T01:47:18;99184.59;;;21.49;57.25
73692;BME280;61996;49.910;35.562;2023-07-24T01:50:20;99188.09;;;21.50;57.22
73692;BME280;61996;49.910;35.562;2023-07-24T01:53:23;99184.75;;;21.56;57.04
73692;BME280;61996;49.910;35.562;2023-07-24T01:56:28;99189.75;;;21.59;57.38
73692;BME280;61996;49.910;35.562;2023-07-24T01:59:31;99188.94;;;21.58;57.23
73692;BME280;61996;49.910;35.562;2023-07-24T02:02:34;99191.78;;;21.57;57.06
73692;BME280;61996;49.910;35.562;2023-07-24T02:05:37;99195.47;;;21.56;56.98
73692;BME280;61996;49.910;35.562;2023-07-24T02:08:40;99198.13;;;21.56;57.01
73692;BME280;61996;49.910;35.562;2023-07-24T02:11:48;99203.13;;;21.59;56.89
73692;BME280;61996;49.910;35.562;2023-07-24T02:14:51;99205.28;;;21.55;56.86
73692;BME280;61996;49.910;35.562;2023-07-24T02:17:55;99207.84;;;21.57;57.00
73692;BME280;61996;49.910;35.562;2023-07-24T02:20:58;99205.28;;;21.55;57.14
73692;BME280;61996;49.910;35.562;2023-07-24T02:24:00;99201.97;;;21.53;56.93
73692;BME280;61996;49.910;35.562;2023-07-24T02:27:05;99211.16;;;21.51;57.10
73692;BME280;61996;49.910;35.562;2023-07-24T02:30:09;99210.34;;;21.50;57.42
73692;BME280;61996;49.910;35.562;2023-07-24T02:33:12;99215.16;;;21.55;56.91
73692;BME280;61996;49.910;35.562;2023-07-24T02:36:14;99226.03;;;21.61;56.84
73692;BME280;61996;49.910;35.562;2023-07-24T02:39:17;99224.88;;;21.64;56.54
73692;BME280;61996;49.910;35.562;2023-07-24T02:42:21;99221.38;;;21.64;56.63
73692;BME280;61996;49.910;35.562;2023-07-24T02:45:24;99218.00;;;21.61;56.59
73692;BME280;61996;49.910;35.562;2023-07-24T02:48:27;99217.34;;;21.59;56.59
73692;BME280;61996;49.910;35.562;2023-07-24T02:51:30;99222.22;;;21.64;56.81
73692;BME280;61996;49.910;35.562;2023-07-24T02:54:33;99213.34;;;21.64;56.64
73692;BME280;61996;49.910;35.562;2023-07-24T02:57:37;99225.91;;;21.63;56.84
73692;BME280;61996;49.910;35.562;2023-07-24T03:00:40;99229.25;;;21.65;56.63
73692;BME280;61996;49.910;35.562;2023-07-24T03:03:43;99230.38;;;21.62;56.90
73692;BME280;61996;49.910;35.562;2023-07-24T03:06:46;99220.53;;;21.63;56.85
73692;BME280;61996;49.910;35.562;2023-07-24T03:09:50;99227.88;;;21.69;56.64
73692;BME280;61996;49.910;35.562;2023-07-24T03:12:55;99226.91;;;21.70;56.58
73692;BME280;61996;49.910;35.562;2023-07-24T03:15:57;99227.88;;;21.69;56.65
73692;BME280;61996;49.910;35.562;2023-07-24T03:19:00;99226.91;;;21.70;56.96
73692;BME280;61996;49.910;35.562;2023-07-24T03:22:03;99228.22;;;21.66;56.97
73692;BME280;61996;49.910;35.562;2023-07-24T03:25:06;99229.91;;;21.67;56.62
73692;BME280;61996;49.910;35.562;2023-07-24T03:28:11;99229.91;;;21.67;56.61
73692;BME280;61996;49.910;35.562;2023-07-24T03:31:14;99231.25;;;21.71;56.83
73692;BME280;61996;49.910;35.562;2023-07-24T03:34:17;99233.59;;;21.66;57.14
73692;BME280;61996;49.910;35.562;2023-07-24T03:37:19;99235.91;;;21.69;56.95
73692;BME280;61996;49.910;35.562;2023-07-24T03:40:22;99226.22;;;21.68;56.77
73692;BME280;61996;49.910;35.562;2023-07-24T03:43:26;99231.75;;;21.67;57.06
73692;BME280;61996;49.910;35.562;2023-07-24T03:46:29;99224.22;;;21.70;56.69
73692;BME280;61996;49.910;35.562;2023-07-24T03:49:33;99229.59;;;21.70;56.80
73692;BME280;61996;49.910;35.562;2023-07-24T03:52:36;99232.41;;;21.69;57.01
73692;BME280;61996;49.910;35.562;2023-07-24T03:55:39;99230.25;;;21.72;56.74
73692;BME280;61996;49.910;35.562;2023-07-24T03:58:43;99237.78;;;21.77;56.87
73692;BME280;61996;49.910;35.562;2023-07-24T04:01:46;99232.56;;;21.75;56.84
73692;BME280;61996;49.910;35.562;2023-07-24T04:04:49;99233.91;;;21.79;56.54
73692;BME280;61996;49.910;35.562;2023-07-24T04:07:52;99233.91;;;21.79;56.38
73692;BME280;61996;49.910;35.562;2023-07-24T04:10:55;99233.09;;;21.79;56.79
73692;BME280;61996;49.910;35.562;2023-07-24T04:13:59;99248.63;;;21.75;56.68
73692;BME280;61996;49.910;35.562;2023-07-24T04:17:02;99229.75;;;21.77;56.76
73692;BME280;61996;49.910;35.562;2023-07-24T04:20:07;99235.94;;;21.77;56.66
73692;BME280;61996;49.910;35.562;2023-07-24T04:23:10;99235.09;;;21.77;56.69
73692;BME280;61996;49.910;35.562;2023-07-24T04:26:13;99235.59;;;21.80;56.54
73692;BME280;61996;49.910;35.562;2023-07-24T04:29:17;99241.94;;;21.79;56.91
73692;BME280;61996;49.910;35.562;2023-07-24T04:32:25;99241.28;;;21.77;56.85
73692;BME280;61996;49.910;35.562;2023-07-24T04:35:28;99241.94;;;21.79;56.72
73692;BME280;61996;49.910;35.562;2023-07-24T04:38:31;99246.81;;;21.84;56.82
73692;BME280;61996;49.910;35.562;2023-07-24T04:41:34;99246.81;;;21.84;56.84
73692;BME280;61996;49.910;35.562;2023-07-24T04:44:38;99250.81;;;21.88;56.64
73692;BME280;61996;49.910;35.562;2023-07-24T04:47:41;99251.16;;;21.93;56.39
73692;BME280;61996;49.910;35.562;2023-07-24T04:50:45;99245.97;;;22.00;56.64
73692;BME280;61996;49.910;35.562;2023-07-24T04:53:47;99251.31;;;21.92;56.31
73692;BME280;61996;49.910;35.562;2023-07-24T04:56:50;99249.31;;;21.94;56.13
73692;BME280;61996;49.910;35.562;2023-07-24T04:59:55;99250.81;;;21.96;55.98
73692;BME280;61996;49.910;35.562;2023-07-24T05:02:57;99252.66;;;21.96;56.40
73692;BME280;61996;49.910;35.562;2023-07-24T05:06:00;99252.00;;;21.94;55.86
73692;BME280;61996;49.910;35.562;2023-07-24T05:09:03;99249.13;;;21.95;56.17
73692;BME280;61996;49.910;35.562;2023-07-24T05:12:06;99254.81;;;22.00;56.09
73692;BME280;61996;49.910;35.562;2023-07-24T05:15:10;99250.13;;;22.02;56.49
73692;BME280;61996;49.910;35.562;2023-07-24T05:18:13;99248.47;;;22.01;56.31
73692;BME280;61996;49.910;35.562;2023-07-24T05:21:16;99249.13;;;22.03;56.24
73692;BME280;61996;49.910;35.562;2023-07-24T05:24:19;99247.63;;;22.01;56.16
73692;BME280;61996;49.910;35.562;2023-07-24T05:27:22;99247.47;;;22.02;56.15
73692;BME280;61996;49.910;35.562;2023-07-24T05:30:26;99245.13;;;21.99;55.89
73692;BME280;61996;49.910;35.562;2023-07-24T05:33:29;99250.47;;;21.99;55.89
73692;BME280;61996;49.910;35.562;2023-07-24T05:36:32;99243.75;;;22.03;56.46
73692;BME280;61996;49.910;35.562;2023-07-24T05:39:35;99239.63;;;22.09;56.00
73692;BME280;61996;49.910;35.562;2023-07-24T05:42:38;99241.28;;;22.10;55.96
73692;BME280;61996;49.910;35.562;2023-07-24T05:45:45;99253.66;;;22.11;55.96
73692;BME280;61996;49.910;35.562;2023-07-24T05:48:48;99250.00;;;22.12;55.43
73692;BME280;61996;49.910;35.562;2023-07-24T05:51:51;99251.50;;;22.14;56.01
73692;BME280;61996;49.910;35.562;2023-07-24T05:54:55;99255.53;;;22.19;55.63
73692;BME280;61996;49.910;35.562;2023-07-24T05:57:58;99256.19;;;22.21;55.07
73692;BME280;61996;49.910;35.562;2023-07-24T06:01:02;99251.00;;;22.19;55.00
73692;BME280;61996;49.910;35.562;2023-07-24T06:04:06;99255.34;;;22.20;55.10
73692;BME280;61996;49.910;35.562;2023-07-24T06:07:09;99255.00;;;22.23;55.05
73692;BME280;61996;49.910;35.562;2023-07-24T06:10:11;99257.69;;;22.23;55.18
73692;BME280;61996;49.910;35.562;2023-07-24T06:13:16;99247.78;;;22.24;55.21
73692;BME280;61996;49.910;35.562;2023-07-24T06:16:20;99245.63;;;22.27;55.04
73692;BME280;61996;49.910;35.562;2023-07-24T06:19:23;99241.09;;;22.28;54.74
73692;BME280;61996;49.910;35.562;2023-07-24T06:22:25;99242.94;;;22.27;55.13
73692;BME280;61996;49.910;35.562;2023-07-24T06:25:28;99233.06;;;22.28;55.10
73692;BME280;61996;49.910;35.562;2023-07-24T06:28:31;99239.09;;;22.30;54.58
73692;BME280;61996;49.910;35.562;2023-07-24T06:31:36;99241.59;;;22.31;54.39
73692;BME280;61996;49.910;35.562;2023-07-24T06:34:39;99241.44;;;22.33;54.53
73692;BME280;61996;49.910;35.562;2023-07-24T06:37:42;99235.56;;;22.29;54.07
73692;BME280;61996;49.910;35.562;2023-07-24T06:40:45;99236.91;;;22.33;54.45
73692;BME280;61996;49.910;35.562;2023-07-24T06:43:47;99229.88;;;22.32;54.66
73692;BME280;61996;49.910;35.562;2023-07-24T06:46:52;99236.38;;;22.38;54.80
73692;BME280;61996;49.910;35.562;2023-07-24T06:49:55;99239.06;;;22.38;54.69
73692;BME280;61996;49.910;35.562;2023-07-24T06:52:58;99232.53;;;22.40;54.21
73692;BME280;61996;49.910;35.562;2023-07-24T06:56:02;99230.19;;;22.37;53.82
73692;BME280;61996;49.910;35.562;2023-07-24T06:59:05;99239.06;;;22.38;53.56
73692;BME280;61996;49.910;35.562;2023-07-24T07:02:09;99243.25;;;22.40;53.94
73692;BME280;61996;49.910;35.562;2023-07-24T07:05:12;99241.59;;;22.39;54.34
73692;BME280;61996;49.910;35.562;2023-07-24T07:08:15;99233.69;;;22.38;53.87
73692;BME280;61996;49.910;35.562;2023-07-24T07:11:17;99232.53;;;22.40;54.11
73692;BME280;61996;49.910;35.562;2023-07-24T07:14:20;99230.00;;;22.39;53.40
73692;BME280;61996;49.910;35.562;2023-07-24T07:17:24;99224.31;;;22.42;53.67
73692;BME280;61996;49.910;35.562;2023-07-24T07:20:27;99229.50;;;22.43;53.66
73692;BME280;61996;49.910;35.562;2023-07-24T07:23:30;99235.53;;;22.46;53.20
73692;BME280;61996;49.910;35.562;2023-07-24T07:26:33;99234.22;;;22.41;53.27
73692;BME280;61996;49.910;35.562;2023-07-24T07:29:36;99229.69;;;22.42;53.08
73692;BME280;61996;49.910;35.562;2023-07-24T07:32:40;99233.03;;;22.44;53.57
73692;BME280;61996;49.910;35.562;2023-07-24T07:35:43;99224.16;;;22.43;52.75
73692;BME280;61996;49.910;35.562;2023-07-24T07:38:46;99225.63;;;22.46;52.79
73692;BME280;61996;49.910;35.562;2023-07-24T07:41:48;99223.97;;;22.45;52.43
73692;BME280;61996;49.910;35.562;2023-07-24T07:45:01;99228.50;;;22.44;52.62
73692;BME280;61996;49.910;35.562;2023-07-24T07:48:06;99224.81;;;22.46;53.34
73692;BME280;61996;49.910;35.562;2023-07-24T07:51:09;99224.66;;;22.47;53.37
73692;BME280;61996;49.910;35.562;2023-07-24T07:54:12;99222.59;;;22.57;53.22
73692;BME280;61996;49.910;35.562;2023-07-24T07:57:15;99222.97;;;22.54;53.00
73692;BME280;61996;49.910;35.562;2023-07-24T08:00:18;99222.13;;;22.54;53.08
73692;BME280;61996;49.910;35.562;2023-07-24T08:03:22;99217.75;;;22.53;53.30
73692;BME280;61996;49.910;35.562;2023-07-24T08:06:25;99215.06;;;22.53;53.33
73692;BME280;61996;49.910;35.562;2023-07-24T08:09:30;99221.75;;;22.57;52.95
73692;BME280;61996;49.910;35.562;2023-07-24T08:12:34;99210.38;;;22.55;52.72
73692;BME280;61996;49.910;35.562;2023-07-24T08:15:37;99220.94;;;22.56;52.28
73692;BME280;61996;49.910;35.562;2023-07-24T08:18:41;99211.41;;;22.54;52.49
73692;BME280;61996;49.910;35.562;2023-07-24T08:21:44;99210.56;;;22.53;52.99
73692;BME280;61996;49.910;35.562;2023-07-24T08:24:47;99213.06;;;22.55;53.19
73692;BME280;61996;49.910;35.562;2023-07-24T08:27:52;99211.03;;;22.57;52.21
73692;BME280;61996;49.910;35.562;2023-07-24T08:31:06;99214.38;;;22.59;51.88
73692;BME280;61996;49.910;35.562;2023-07-24T08:34:11;99213.72;;;22.57;51.92
73692;BME280;61996;49.910;35.562;2023-07-24T08:37:13;99220.94;;;22.56;52.49
73692;BME280;61996;49.910;35.562;2023-07-24T08:40:16;99212.06;;;22.56;52.45
73692;BME280;61996;49.910;35.562;2023-07-24T08:43:19;99211.03;;;22.57;53.02
73692;BME280;61996;49.910;35.562;2023-07-24T08:46:24;99209.19;;;22.57;52.40
73692;BME280;61996;49.910;35.562;2023-07-24T08:49:29;99209.00;;;22.59;52.94
73692;BME280;61996;49.910;35.562;2023-07-24T08:52:32;99213.53;;;22.58;52.75
73692;BME280;61996;49.910;35.562;2023-07-24T08:55:37;99210.69;;;22.60;52.62
73692;BME280;61996;49.910;35.562;2023-07-24T08:58:41;99205.31;;;22.60;52.75
73692;BME280;61996;49.910;35.562;2023-07-24T09:01:44;99204.34;;;22.61;52.66
73692;BME280;61996;49.910;35.562;2023-07-24T09:04:48;99209.69;;;22.61;52.31
73692;BME280;61996;49.910;35.562;2023-07-24T09:07:51;99206.00;;;22.62;51.40
73692;BME280;61996;49.910;35.562;2023-07-24T09:10:55;99208.69;;;22.62;51.52
73692;BME280;61996;49.910;35.562;2023-07-24T09:13:58;99210.34;;;22.63;51.90
73692;BME280;61996;49.910;35.562;2023-07-24T09:17:01;99211.19;;;22.63;52.04
73692;BME280;61996;49.910;35.562;2023-07-24T09:20:06;99213.88;;;22.63;52.12
73692;BME280;61996;49.910;35.562;2023-07-24T09:23:10;99213.50;;;22.66;51.84
73692;BME280;61996;49.910;35.562;2023-07-24T09:26:19;99213.34;;;22.68;50.87
73692;BME280;61996;49.910;35.562;2023-07-24T09:29:29;99206.34;;;22.67;50.84
73692;BME280;61996;49.910;35.562;2023-07-24T09:32:32;99201.13;;;22.65;51.48
73692;BME280;61996;49.910;35.562;2023-07-24T09:35:37;99202.63;;;22.68;51.75
73692;BME280;61996;49.910;35.562;2023-07-24T09:38:40;99197.75;;;22.71;52.12
73692;BME280;61996;49.910;35.562;2023-07-24T09:41:43;99200.78;;;22.68;52.17
73692;BME280;61996;49.910;35.562;2023-07-24T09:44:49;99206.97;;;22.69;52.04
73692;BME280;61996;49.910;35.562;2023-07-24T09:47:52;99202.28;;;22.71;51.80
73692;BME280;61996;49.910;35.562;2023-07-24T09:51:08;99191.72;;;22.69;51.67
73692;BME280;61996;49.910;35.562;2023-07-24T09:54:15;99188.88;;;22.71;52.09
73692;BME280;61996;49.910;35.562;2023-07-24T09:57:20;99196.91;;;22.71;51.86
73692;BME280;61996;49.910;35.562;2023-07-24T10:00:24;99194.22;;;22.71;51.79
73692;BME280;61996;49.910;35.562;2023-07-24T10:03:27;99187.84;;;22.72;52.02
73692;BME280;61996;49.910;35.562;2023-07-24T10:06:32;99187.69;;;22.74;51.83
73692;BME280;61996;49.910;35.562;2023-07-24T10:09:35;99185.00;;;22.74;52.60
73692;BME280;61996;49.910;35.562;2023-07-24T10:12:39;99180.50;;;22.74;51.98
73692;BME280;61996;49.910;35.562;2023-07-24T10:15:43;99184.84;;;22.75;51.23
73692;BME280;61996;49.910;35.562;2023-07-24T10:21:51;99179.94;;;22.79;51.41
73692;BME280;61996;49.910;35.562;2023-07-24T10:24:55;99173.56;;;22.80;51.59
73692;BME280;61996;49.910;35.562;2023-07-24T10:28:02;99177.91;;;22.81;50.88
73692;BME280;61996;49.910;35.562;2023-07-24T10:31:19;99179.63;;;22.82;51.64
73692;BME280;61996;49.910;35.562;2023-07-24T10:34:22;99177.78;;;22.82;51.72
73692;BME280;61996;49.910;35.562;2023-07-24T10:37:33;99179.44;;;22.83;52.13
73692;BME280;61996;49.910;35.562;2023-07-24T10:40:37;99161.50;;;22.84;52.12
73692;BME280;61996;49.910;35.562;2023-07-24T10:43:40;99164.34;;;22.90;50.89
73692;BME280;61996;49.910;35.562;2023-07-24T10:46:48;99161.84;;;22.89;52.01
73692;BME280;61996;49.910;35.562;2023-07-24T10:49:51;99153.63;;;22.90;51.79
73692;BME280;61996;49.910;35.562;2023-07-24T10:52:55;99142.91;;;22.90;52.15
73692;BME280;61996;49.910;35.562;2023-07-24T10:55:59;99153.44;;;22.92;52.57
73692;BME280;61996;49.910;35.562;2023-07-24T10:59:03;99148.91;;;22.92;52.48
73692;BME280;61996;49.910;35.562;2023-07-24T11:02:06;99149.56;;;22.94;52.84
73692;BME280;61996;49.910;35.562;2023-07-24T11:05:11;99154.09;;;22.94;52.64
73692;BME280;61996;49.910;35.562;2023-07-24T11:08:17;99157.28;;;22.97;52.79
73692;BME280;61996;49.910;35.562;2023-07-24T11:11:20;99143.03;;;22.97;52.95
73692;BME280;61996;49.910;35.562;2023-07-24T11:14:23;99140.16;;;22.98;52.50
73692;BME280;61996;49.910;35.562;2023-07-24T11:17:33;99133.59;;;23.01;52.59
73692;BME280;61996;49.910;35.562;2023-07-24T11:20:37;99123.88;;;23.00;52.72
73692;BME280;61996;49.910;35.562;2023-07-24T11:23:45;99126.22;;;23.03;52.44
73692;BME280;61996;49.910;35.562;2023-07-24T11:26:48;99119.00;;;23.04;52.82
73692;BME280;61996;49.910;35.562;2023-07-24T11:29:53;99124.19;;;23.05;52.74
73692;BME280;61996;49.910;35.562;2023-07-24T11:32:56;99121.31;;;23.07;52.68
73692;BME280;61996;49.910;35.562;2023-07-24T11:36:00;99116.78;;;23.07;52.96
73692;BME280;61996;49.910;35.562;2023-07-24T11:39:04;99121.13;;;23.08;52.81
73692;BME280;61996;49.910;35.562;2023-07-24T11:42:07;99116.47;;;23.10;52.65
73692;BME280;61996;49.910;35.562;2023-07-24T11:45:10;99108.41;;;23.10;52.82
73692;BME280;61996;49.910;35.562;2023-07-24T11:48:13;99094.63;;;23.13;53.20
73692;BME280;61996;49.910;35.562;2023-07-24T11:51:17;99098.81;;;23.16;52.36
73692;BME280;61996;49.910;35.562;2023-07-24T11:54:21;99100.47;;;23.17;52.45
73692;BME280;61996;49.910;35.562;2023-07-24T11:57:24;99102.16;;;23.18;52.71
73692;BME280;61996;49.910;35.562;2023-07-24T12:00:27;99105.47;;;23.20;52.10
73692;BME280;61996;49.910;35.562;2023-07-24T12:03:30;99100.75;;;23.22;52.02
73692;BME280;61996;49.910;35.562;2023-07-24T12:06:33;99096.06;;;23.24;51.92
73692;BME280;61996;49.910;35.562;2023-07-24T12:09:37;99093.38;;;23.24;52.17
73692;BME280;61996;49.910;35.562;2023-07-24T12:12:42;99090.69;;;23.24;52.21
73692;BME280;61996;49.910;35.562;2023-07-24T12:15:48;99087.00;;;23.25;51.87
73692;BME280;61996;49.910;35.562;2023-07-24T12:18:51;99090.13;;;23.29;51.88
73692;BME280;61996;49.910;35.562;2023-07-24T12:21:53;99085.59;;;23.29;52.30
73692;BME280;61996;49.910;35.562;2023-07-24T12:24:58;99087.31;;;23.30;52.27
73692;BME280;61996;49.910;35.562;2023-07-24T12:28:00;99084.25;;;23.33;51.85
73692;BME280;61996;49.910;35.562;2023-07-24T12:31:03;99081.75;;;23.32;52.29
73692;BME280;61996;49.910;35.562;2023-07-24T12:34:07;99078.50;;;23.36;52.08
73692;BME280;61996;49.910;35.562;2023-07-24T12:37:10;99073.31;;;23.35;52.13
73692;BME280;61996;49.910;35.562;2023-07-24T12:40:14;99068.44;;;23.38;51.71
73692;BME280;61996;49.910;35.562;2023-07-24T12:43:17;99065.75;;;23.38;51.83
73692;BME280;61996;49.910;35.562;2023-07-24T12:46:20;99066.59;;;23.39;51.89
73692;BME280;61996;49.910;35.562;2023-07-24T12:49:23;99071.75;;;23.40;51.68
73692;BME280;61996;49.910;35.562;2023-07-24T12:52:26;99068.06;;;23.41;51.94
73692;BME280;61996;49.910;35.562;2023-07-24T12:55:30;99065.03;;;23.44;51.78
73692;BME280;61996;49.910;35.562;2023-07-24T12:58:33;99069.19;;;23.47;51.71
73692;BME280;61996;49.910;35.562;2023-07-24T13:01:36;99057.25;;;23.49;51.75
73692;BME280;61996;49.910;35.562;2023-07-24T13:04:39;99060.59;;;23.51;51.80
73692;BME280;61996;49.910;35.562;2023-07-24T13:07:41;99067.81;;;23.51;51.86
73692;BME280;61996;49.910;35.562;2023-07-24T13:10:46;99057.53;;;23.55;51.66
73692;BME280;61996;49.910;35.562;2023-07-24T13:13:49;99051.53;;;23.52;51.32
73692;BME280;61996;49.910;35.562;2023-07-24T13:16:53;99053.00;;;23.55;51.67
73692;BME280;61996;49.910;35.562;2023-07-24T13:19:56;99047.09;;;23.60;51.57
73692;BME280;61996;49.910;35.562;2023-07-24T13:22:59;99052.13;;;23.63;51.67
73692;BME280;61996;49.910;35.562;2023-07-24T13:26:03;99044.91;;;23.63;51.72
73692;BME280;61996;49.910;35.562;2023-07-24T13:29:06;99046.75;;;23.63;51.43
73692;BME280;61996;49.910;35.562;2023-07-24T13:32:09;99052.78;;;23.65;51.17
73692;BME280;61996;49.910;35.562;2023-07-24T13:35:12;99046.94;;;23.61;51.73
73692;BME280;61996;49.910;35.562;2023-07-24T13:38:16;99040.00;;;23.67;51.36
73692;BME280;61996;49.910;35.562;2023-07-24T13:41:24;99039.81;;;23.68;51.11
73692;BME280;61996;49.910;35.562;2023-07-24T13:44:27;99043.34;;;23.69;51.56
73692;BME280;61996;49.910;35.562;2023-07-24T13:47:30;99032.59;;;23.69;51.30
73692;BME280;61996;49.910;35.562;2023-07-24T13:50:32;99046.84;;;23.69;51.29
73692;BME280;61996;49.910;35.562;2023-07-24T13:53:35;99048.50;;;23.70;51.40
73692;BME280;61996;49.910;35.562;2023-07-24T13:56:39;99049.34;;;23.71;51.42
73692;BME280;61996;49.910;35.562;2023-07-24T13:59:42;99040.75;;;23.75;51.13
73692;BME280;61996;49.910;35.562;2023-07-24T14:02:45;99048.78;;;23.75;51.37
73692;BME280;61996;49.910;35.562;2023-07-24T14:05:48;99046.94;;;23.76;50.98
73692;BME280;61996;49.910;35.562;2023-07-24T14:08:51;99045.09;;;23.76;51.37
73692;BME280;61996;49.910;35.562;2023-07-24T14:11:55;99037.69;;;23.78;50.96
73692;BME280;61996;49.910;35.562;2023-07-24T14:14:58;99044.06;;;23.77;50.99
73692;BME280;61996;49.910;35.562;2023-07-24T14:18:01;99045.75;;;23.78;51.07
73692;BME280;61996;49.910;35.562;2023-07-24T14:21:04;99040.56;;;23.77;51.27
73692;BME280;61996;49.910;35.562;2023-07-24T14:24:07;99039.53;;;23.78;51.20
73692;BME280;61996;49.910;35.562;2023-07-24T14:27:11;99028.63;;;23.79;51.18
73692;BME280;61996;49.910;35.562;2023-07-24T14:30:14;99031.13;;;23.81;51.12
73692;BME280;61996;49.910;35.562;2023-07-24T14:33:17;99025.75;;;23.81;51.07
73692;BME280;61996;49.910;35.562;2023-07-24T14:36:20;99033.63;;;23.83;51.15
73692;BME280;61996;49.910;35.562;2023-07-24T14:39:23;99023.91;;;23.82;50.81
73692;BME280;61996;49.910;35.562;2023-07-24T14:42:27;99030.47;;;23.79;51.22
73692;BME280;61996;49.910;35.562;2023-07-24T14:45:30;99036.00;;;23.77;51.39
73692;BME280;61996;49.910;35.562;2023-07-24T14:48:33;99032.03;;;23.73;51.35
73692;BME280;61996;49.910;35.562;2023-07-24T14:51:35;99029.81;;;23.77;51.38
73692;BME280;61996;49.910;35.562;2023-07-24T14:54:39;99011.41;;;23.74;51.45
73692;BME280;61996;49.910;35.562;2023-07-24T14:57:43;99013.91;;;23.75;51.53
73692;BME280;61996;49.910;35.562;2023-07-24T15:00:46;99005.50;;;23.78;51.16
73692;BME280;61996;49.910;35.562;2023-07-24T15:03:48;99006.97;;;23.81;51.12
73692;BME280;61996;49.910;35.562;2023-07-24T15:06:52;99006.13;;;23.81;51.21
73692;BME280;61996;49.910;35.562;2023-07-24T15:09:55;99006.97;;;23.81;51.18
73692;BME280;61996;49.910;35.562;2023-07-24T15:12:59;99008.63;;;23.82;51.36
73692;BME280;61996;49.910;35.562;2023-07-24T15:16:03;99007.97;;;23.80;51.43
73692;BME280;61996;49.910;35.562;2023-07-24T15:19:05;99001.59;;;23.81;51.08
73692;BME280;61996;49.910;35.562;2023-07-24T15:22:08;99003.25;;;23.82;51.56
73692;BME280;61996;49.910;35.562;2023-07-24T15:25:11;99001.69;;;23.88;51.01
73692;BME280;61996;49.910;35.562;2023-07-24T15:28:15;99001.69;;;23.88;51.43
73692;BME280;61996;49.910;35.562;2023-07-24T15:31:18;98995.47;;;23.87;51.26
73692;BME280;61996;49.910;35.562;2023-07-24T15:34:21;98999.81;;;23.88;51.12
73692;BME280;61996;49.910;35.562;2023-07-24T15:37:24;98989.28;;;23.87;51.19
73692;BME280;61996;49.910;35.562;2023-07-24T15:40:27;98989.72;;;23.90;51.43
73692;BME280;61996;49.910;35.562;2023-07-24T15:43:31;98983.72;;;23.88;51.14
73692;BME280;61996;49.910;35.562;2023-07-24T15:46:34;98984.72;;;23.87;51.10
73692;BME280;61996;49.910;35.562;2023-07-24T15:49:37;98982.03;;;23.87;51.19
73692;BME280;61996;49.910;35.562;2023-07-24T15:52:40;98981.03;;;23.88;51.39
73692;BME280;61996;49.910;35.562;2023-07-24T15:55:43;98975.00;;;23.86;51.53
73692;BME280;61996;49.910;35.562;2023-07-24T15:58:48;98974.63;;;23.89;51.38
73692;BME280;61996;49.910;35.562;2023-07-24T16:01:51;98976.69;;;23.87;51.58